createdAt,value
2023-01-23T00:00:20.036Z,91.98
2023-01-23T00:04:36.100Z,92.76
2023-01-23T00:08:48.724Z,92.60
2023-01-23T00:13:03.750Z,92.62
2023-01-23T00:17:07.856Z,91.95
2023-01-23T00:21:18.070Z,92.89
2023-01-23T00:25:25.387Z,92.64
2023-01-23T00:29:29.511Z,93.74
2023-01-23T00:33:34.382Z,92.79
2023-01-23T00:37:42.275Z,93.46
2023-01-23T00:41:49.451Z,94.26
2023-01-23T00:46:02.958Z,93.86
2023-01-23T00:50:09.984Z,93.53
2023-01-23T00:54:27.535Z,93.98
2023-01-23T00:58:31.220Z,92.79
2023-01-23T01:02:39.159Z,92.63
2023-01-23T01:06:45.696Z,93.19
2023-01-23T01:11:05.992Z,93.60
2023-01-23T01:15:12.510Z,94.36
2023-01-23T01:19:18.188Z,94.86
2023-01-23T01:23:31.490Z,94.52
2023-01-23T01:27:37.169Z,94.81
2023-01-23T01:31:43.019Z,94.57
2023-01-23T01:35:51.709Z,94.68
2023-01-23T01:40:10.503Z,94.31
2023-01-23T01:44:21.828Z,94.22
2023-01-23T01:48:28.199Z,94.69
2023-01-23T01:52:33.223Z,94.70
2023-01-23T01:56:41.573Z,95.25
2023-01-23T02:00:48.886Z,94.74
2023-01-23T02:05:07.152Z,94.72
2023-01-23T02:09:22.136Z,94.10
2023-01-23T02:13:33.018Z,94.87
2023-01-23T02:17:39.256Z,93.50
2023-01-23T02:21:45.822Z,93.25
2023-01-23T02:26:01.213Z,93.94
2023-01-23T02:30:08.301Z,94.96
2023-01-23T02:34:23.185Z,94.24
2023-01-23T02:38:44.379Z,94.13
2023-01-23T02:42:53.279Z,94.37
2023-01-23T02:47:12.949Z,94.31
2023-01-23T02:51:18.199Z,94.34
2023-01-23T02:55:23.292Z,95.05
2023-01-23T03:00:10.289Z,93.93
2023-01-23T03:04:15.955Z,93.25
2023-01-23T03:08:27.475Z,93.85
2023-01-23T03:12:34.661Z,93.79
2023-01-23T03:16:51.332Z,93.86
2023-01-23T03:20:56.114Z,93.20
2023-01-23T03:25:08.407Z,92.59
2023-01-23T03:29:35.968Z,93.73
2023-01-23T03:33:46.556Z,93.74
2023-01-23T03:37:55.354Z,93.27
2023-01-23T03:41:58.919Z,93.23
2023-01-23T03:46:08.451Z,93.83
2023-01-23T03:50:14.391Z,93.16
2023-01-23T03:54:20.581Z,92.26
2023-01-23T03:58:25.002Z,92.11
2023-01-23T04:02:31.089Z,91.49
2023-01-23T04:06:41.251Z,89.37
2023-01-23T04:10:47.110Z,91.00
2023-01-23T04:14:57.494Z,90.74
2023-01-23T04:19:03.068Z,90.58
2023-01-23T04:23:11.160Z,90.72
2023-01-23T04:27:18.581Z,90.79
2023-01-23T04:31:32.409Z,91.65
2023-01-23T04:35:42.567Z,91.04
2023-01-23T04:40:08.332Z,91.06
2023-01-23T04:44:27.809Z,90.73
2023-01-23T04:48:40.972Z,89.53
2023-01-23T04:52:47.783Z,89.97
2023-01-23T04:56:58.729Z,89.33
2023-01-23T05:01:12.832Z,89.51
2023-01-23T05:05:30.484Z,89.69
2023-01-23T05:09:36.806Z,88.78
2023-01-23T05:13:48.244Z,89.59
2023-01-23T05:17:58.259Z,89.67
2023-01-23T05:22:03.122Z,89.39
2023-01-23T05:26:07.628Z,89.59
2023-01-23T05:30:20.793Z,89.58
2023-01-23T05:34:27.848Z,89.95
2023-01-23T05:38:34.283Z,89.83
2023-01-23T05:42:38.162Z,90.26
2023-01-23T05:46:59.762Z,89.12
2023-01-23T05:51:07.572Z,90.04
2023-01-23T05:55:17.975Z,89.85
2023-01-23T05:59:25.466Z,88.13
2023-01-23T06:03:37.565Z,89.74
2023-01-23T06:07:47.182Z,89.29
2023-01-23T06:11:55.338Z,90.29
2023-01-23T06:16:01.000Z,88.57
2023-01-23T06:20:14.926Z,89.28
2023-01-23T06:24:23.027Z,88.68
2023-01-23T06:28:29.090Z,88.11
2023-01-23T06:32:39.713Z,89.74
2023-01-23T06:41:08.163Z,89.63
2023-01-23T06:45:14.021Z,88.75
2023-01-23T06:49:20.524Z,87.35
2023-01-23T06:53:27.881Z,86.88
2023-01-23T06:57:37.070Z,85.96
2023-01-23T07:01:42.777Z,88.31
2023-01-23T07:05:47.445Z,86.40
2023-01-23T07:09:53.737Z,87.81
2023-01-23T07:13:56.916Z,85.45
2023-01-23T07:18:00.003Z,87.42
2023-01-23T07:22:03.553Z,85.45
2023-01-23T07:26:09.792Z,87.04
2023-01-23T07:30:14.185Z,87.07
2023-01-23T07:34:16.894Z,85.41
2023-01-23T07:38:19.623Z,86.57
2023-01-23T07:42:24.185Z,86.07
2023-01-23T07:46:30.338Z,85.88
2023-01-23T07:50:33.037Z,87.42
2023-01-23T07:54:40.031Z,87.91
2023-01-23T07:58:45.458Z,86.75
2023-01-23T08:02:48.557Z,86.75
2023-01-23T08:06:57.337Z,86.74
2023-01-23T08:11:00.075Z,86.74
2023-01-23T08:15:04.606Z,86.67
2023-01-23T08:19:07.661Z,87.95
2023-01-23T08:23:12.659Z,88.25
2023-01-23T08:27:15.465Z,88.24
2023-01-23T08:31:19.869Z,87.70
2023-01-23T08:35:29.092Z,87.05
2023-01-23T08:39:35.390Z,88.06
2023-01-23T08:43:38.644Z,88.89
2023-01-23T08:47:42.922Z,87.92
2023-01-23T08:51:50.824Z,86.72
2023-01-23T08:55:53.588Z,86.27
2023-01-23T08:59:56.628Z,84.01
2023-01-23T09:04:00.741Z,84.64
2023-01-23T09:08:06.393Z,84.66
2023-01-23T09:12:09.238Z,85.54
2023-01-23T09:16:16.037Z,85.30
2023-01-23T09:20:21.923Z,84.33
2023-01-23T09:24:26.226Z,85.33
2023-01-23T09:28:32.429Z,83.18
2023-01-23T09:32:35.088Z,84.54
2023-01-23T09:36:43.190Z,84.54
2023-01-23T09:40:51.683Z,84.68
2023-01-23T09:44:59.438Z,83.93
2023-01-23T09:49:05.609Z,83.80
2023-01-23T09:53:21.564Z,84.39
2023-01-23T09:57:45.793Z,82.41
2023-01-23T10:01:52.410Z,85.52
2023-01-23T10:06:05.447Z,84.71
2023-01-23T10:10:35.325Z,81.58
2023-01-23T10:14:51.468Z,81.82
2023-01-23T10:19:03.581Z,82.37
2023-01-23T10:23:12.868Z,84.72
2023-01-23T10:27:21.117Z,82.60
2023-01-23T10:31:36.945Z,82.14
2023-01-23T10:35:42.982Z,83.33
2023-01-23T10:39:50.819Z,84.38
2023-01-23T10:43:56.994Z,81.92
2023-01-23T10:47:59.950Z,82.04
2023-01-23T10:52:04.398Z,81.29
2023-01-23T10:56:15.981Z,83.78
2023-01-23T11:00:27.787Z,83.79
2023-01-23T11:04:34.567Z,81.37
2023-01-23T11:08:41.792Z,83.07
2023-01-23T11:12:52.929Z,83.72
2023-01-23T11:17:13.571Z,83.03
2023-01-23T11:21:24.315Z,82.13
2023-01-23T11:25:33.613Z,80.81
2023-01-23T11:29:55.484Z,82.15
2023-01-23T11:34:15.495Z,81.54
2023-01-23T11:38:30.644Z,82.79
2023-01-23T11:42:48.997Z,83.12
2023-01-23T11:47:14.664Z,81.05
2023-01-23T11:51:26.418Z,82.10
2023-01-23T11:55:57.071Z,83.78
2023-01-23T12:00:19.326Z,83.52
2023-01-23T12:05:07.505Z,80.92
2023-01-23T12:09:17.598Z,82.45
2023-01-23T12:13:37.064Z,82.27
2023-01-23T12:17:46.101Z,83.80
2023-01-23T12:22:02.070Z,81.81
2023-01-23T12:26:21.106Z,81.87
2023-01-23T12:30:51.108Z,83.24
2023-01-23T12:35:18.802Z,81.67
2023-01-23T12:39:39.523Z,83.46
2023-01-23T12:43:48.547Z,83.28
2023-01-23T12:47:56.913Z,82.34
2023-01-23T12:52:02.591Z,82.69
2023-01-23T12:56:09.515Z,82.31
2023-01-23T13:00:31.109Z,81.58
2023-01-23T13:04:58.627Z,82.89
2023-01-23T13:09:17.469Z,84.36
2023-01-23T13:13:28.209Z,83.63
2023-01-23T13:17:37.629Z,82.97
2023-01-23T13:21:58.309Z,83.89
2023-01-23T13:26:30.182Z,82.83
2023-01-23T13:31:01.104Z,84.20
2023-01-23T13:35:53.031Z,83.89
2023-01-23T13:40:06.713Z,83.06
2023-01-23T13:44:21.367Z,83.19
2023-01-23T14:20:47.962Z,85.33
2023-01-23T14:25:01.861Z,83.17
2023-01-23T14:29:28.963Z,84.06
2023-01-23T14:33:41.656Z,84.95
2023-01-23T14:37:44.761Z,84.47
2023-01-23T14:41:49.117Z,84.20
2023-01-23T14:45:59.491Z,85.12
2023-01-23T14:50:03.159Z,85.77
2023-01-23T14:54:10.398Z,84.83
2023-01-23T14:58:28.517Z,84.68
2023-01-23T15:02:35.863Z,84.59
2023-01-23T15:06:39.133Z,85.50
2023-01-23T15:10:46.613Z,85.49
2023-01-23T15:14:54.166Z,85.32
2023-01-23T15:19:02.875Z,85.38
2023-01-23T15:23:24.358Z,86.12
2023-01-23T15:27:29.011Z,85.74
2023-01-23T15:31:35.760Z,86.18
2023-01-23T15:35:40.292Z,84.82
2023-01-23T15:39:51.124Z,84.53
2023-01-23T15:43:54.087Z,85.42
2023-01-23T15:47:56.950Z,85.60
2023-01-23T15:52:02.916Z,85.34
2023-01-23T15:56:06.939Z,85.54
2023-01-23T16:00:16.307Z,86.19
2023-01-23T16:04:19.059Z,85.70
2023-01-23T16:08:31.298Z,86.62
2023-01-23T16:12:35.552Z,85.93
2023-01-23T16:16:38.662Z,86.18
2023-01-23T16:20:44.283Z,85.61
2023-01-23T16:24:48.525Z,86.33
2023-01-23T16:28:55.366Z,87.56
2023-01-23T16:33:00.027Z,85.85
2023-01-23T16:37:03.966Z,87.09
2023-01-23T16:41:10.677Z,88.19
2023-01-23T16:45:17.918Z,87.69
2023-01-23T16:49:21.712Z,87.91
2023-01-23T16:53:26.220Z,88.86
2023-01-23T16:57:30.472Z,88.94
2023-01-23T17:01:35.277Z,89.46
2023-01-23T17:05:38.728Z,86.91
2023-01-23T17:09:42.221Z,88.11
2023-01-23T17:13:47.213Z,88.75
2023-01-23T17:17:51.593Z,88.27
2023-01-23T17:21:55.233Z,88.47
2023-01-23T17:26:01.160Z,88.65
2023-01-23T17:30:09.956Z,88.26
2023-01-23T17:34:20.565Z,87.74
2023-01-23T17:38:26.632Z,88.70
2023-01-23T17:42:32.304Z,88.02
2023-01-23T17:46:39.602Z,88.61
2023-01-23T17:50:44.619Z,88.57
2023-01-23T17:54:47.926Z,88.82
2023-01-23T17:58:51.425Z,86.44
2023-01-23T18:03:00.949Z,86.53
2023-01-23T18:07:04.594Z,88.61
2023-01-23T18:11:25.039Z,87.80
2023-01-23T18:15:33.345Z,88.43
2023-01-23T18:19:42.799Z,88.94
2023-01-23T18:23:47.312Z,88.33
2023-01-23T18:27:55.354Z,89.71
2023-01-23T18:32:15.415Z,90.11
2023-01-23T18:36:50.220Z,87.96
2023-01-23T18:41:07.849Z,90.05
2023-01-23T18:45:15.007Z,91.13
2023-01-23T18:49:32.886Z,91.00
2023-01-23T18:53:48.445Z,89.91
2023-01-23T18:58:09.041Z,90.86
2023-01-23T19:02:42.859Z,90.38
2023-01-23T19:06:47.205Z,89.50
2023-01-23T19:11:09.132Z,86.69
2023-01-23T19:15:24.603Z,88.30
2023-01-23T19:19:32.322Z,90.33
2023-01-23T19:23:46.457Z,91.41
2023-01-23T19:27:56.535Z,91.50
2023-01-23T19:32:05.911Z,91.03
2023-01-23T19:36:15.739Z,88.15
2023-01-23T19:40:22.985Z,89.33
2023-01-23T19:44:30.277Z,89.99
2023-01-23T19:48:36.034Z,89.75
2023-01-23T19:52:42.774Z,88.65
2023-01-23T19:57:03.129Z,91.16
2023-01-23T20:01:43.416Z,88.52
2023-01-23T20:10:26.224Z,90.78
2023-01-23T20:14:31.999Z,90.10
2023-01-23T20:18:40.453Z,89.04
2023-01-23T20:22:51.329Z,89.27
2023-01-23T20:26:57.612Z,89.25
2023-01-23T20:31:12.782Z,88.60
2023-01-23T20:35:30.837Z,86.49
2023-01-23T20:39:35.018Z,87.26
2023-01-23T20:43:39.982Z,86.87
2023-01-23T20:47:53.328Z,87.70
2023-01-23T20:52:20.077Z,88.49
2023-01-23T20:56:30.863Z,89.56
2023-01-23T21:00:33.751Z,87.80
2023-01-23T21:04:40.208Z,87.38
2023-01-23T21:08:54.187Z,86.34
2023-01-23T21:13:04.438Z,87.50
2023-01-23T21:17:12.131Z,87.82
2023-01-23T21:21:34.309Z,87.13
2023-01-23T21:25:43.088Z,87.29
2023-01-23T21:29:54.535Z,86.95
2023-01-23T21:34:06.135Z,87.23
2023-01-23T21:38:21.223Z,86.74
2023-01-23T21:42:33.263Z,87.91
2023-01-23T21:46:41.059Z,85.34
2023-01-23T21:50:54.384Z,85.49
2023-01-23T21:55:16.444Z,86.80
2023-01-23T21:59:25.142Z,87.33
2023-01-23T22:03:51.205Z,87.91
2023-01-23T22:08:02.675Z,87.35
2023-01-23T22:12:16.129Z,88.09
2023-01-23T22:16:31.925Z,87.42
2023-01-23T22:20:44.499Z,87.32
2023-01-23T22:24:48.510Z,88.30
2023-01-23T22:28:52.767Z,88.00
2023-01-23T22:33:01.199Z,88.41
2023-01-23T22:37:11.669Z,87.09
2023-01-23T22:41:21.225Z,87.56
2023-01-23T22:45:28.632Z,87.92
2023-01-23T22:49:41.602Z,88.34
2023-01-23T22:53:46.346Z,88.08
2023-01-23T22:57:53.948Z,88.46
2023-01-23T23:01:57.873Z,87.68
2023-01-23T23:06:17.961Z,89.12
2023-01-23T23:10:22.408Z,88.33
2023-01-23T23:14:35.969Z,87.85
2023-01-23T23:18:43.072Z,89.03
2023-01-23T23:22:51.690Z,88.40
2023-01-23T23:26:56.181Z,88.97
2023-01-23T23:31:04.730Z,86.79
2023-01-23T23:35:10.311Z,87.69
2023-01-23T23:39:15.177Z,88.46
2023-01-23T23:43:19.795Z,88.75
2023-01-23T23:47:25.792Z,89.45
2023-01-23T23:51:34.464Z,87.88
2023-01-23T23:55:42.951Z,88.75
2023-01-23T23:59:47.196Z,88.51
